sensor_id;sensor_type;location;lat;lon;timestamp;pressure;altitude;pressure_sealevel;temperature;humidity
56006;BME280;41888;44.696;10.522;2023-05-09T00:00:29;100835.81;;;16.17;100.00
56006;BME280;41888;44.696;10.522;2023-05-09T00:02:55;100838.00;;;16.09;100.00
56006;BME280;41888;44.696;10.522;2023-05-09T00:05:21;100836.94;;;16.10;100.00
56006;BME280;41888;44.696;10.522;2023-05-09T00:07:48;100839.84;;;15.96;100.00
56006;BME280;41888;44.696;10.522;2023-05-09T00:10:14;100842.75;;;15.95;100.00
56006;BME280;41888;44.696;10.522;2023-05-09T00:12:41;100846.72;;;16.04;100.00
56006;BME280;41888;44.696;10.522;2023-05-09T00:15:09;100846.00;;;15.97;100.00
56006;BME280;41888;44.696;10.522;2023-05-09T00:17:35;100848.03;;;16.01;100.00
56006;BME280;41888;44.696;10.522;2023-05-09T00:20:03;100842.41;;;16.03;100.00
56006;BME280;41888;44.696;10.522;2023-05-09T00:22:33;100846.72;;;16.04;100.00
56006;BME280;41888;44.696;10.522;2023-05-09T00:25:00;100846.16;;;16.02;100.00
56006;BME280;41888;44.696;10.522;2023-05-09T00:27:26;100841.25;;;15.99;100.00
56006;BME280;41888;44.696;10.522;2023-05-09T00:29:55;100846.88;;;16.21;100.00
56006;BME280;41888;44.696;10.522;2023-05-09T00:32:21;100842.25;;;16.28;100.00
56006;BME280;41888;44.696;10.522;2023-05-09T00:34:49;100843.06;;;16.28;100.00
56006;BME280;41888;44.696;10.522;2023-05-09T00:37:15;100839.41;;;16.34;100.00
56006;BME280;41888;44.696;10.522;2023-05-09T00:39:44;100838.94;;;16.26;100.00
56006;BME280;41888;44.696;10.522;2023-05-09T00:42:11;100841.97;;;16.29;100.00
56006;BME280;41888;44.696;10.522;2023-05-09T00:44:37;100835.94;;;16.22;100.00
56006;BME280;41888;44.696;10.522;2023-05-09T00:47:03;100830.06;;;16.02;100.00
56006;BME280;41888;44.696;10.522;2023-05-09T00:49:29;100822.69;;;15.86;100.00
56006;BME280;41888;44.696;10.522;2023-05-09T00:51:56;100820.09;;;15.79;100.00
56006;BME280;41888;44.696;10.522;2023-05-09T00:54:23;100820.78;;;15.86;100.00
56006;BME280;41888;44.696;10.522;2023-05-09T00:56:50;100816.13;;;15.93;100.00
56006;BME280;41888;44.696;10.522;2023-05-09T00:59:17;100816.75;;;16.19;100.00
56006;BME280;41888;44.696;10.522;2023-05-09T01:01:44;100817.94;;;16.11;100.00
56006;BME280;41888;44.696;10.522;2023-05-09T01:04:12;100812.09;;;16.14;100.00
56006;BME280;41888;44.696;10.522;2023-05-09T01:10:00;100797.94;;;15.84;100.00
56006;BME280;41888;44.696;10.522;2023-05-09T01:12:40;100795.50;;;15.94;100.00
56006;BME280;41888;44.696;10.522;2023-05-09T01:18:15;100788.97;;;16.13;100.00
56006;BME280;41888;44.696;10.522;2023-05-09T01:31:40;100801.81;;;16.34;100.00
56006;BME280;41888;44.696;10.522;2023-05-09T01:34:08;100792.28;;;16.27;100.00
56006;BME280;41888;44.696;10.522;2023-05-09T01:36:37;100792.13;;;16.10;100.00
56006;BME280;41888;44.696;10.522;2023-05-09T01:39:06;100797.25;;;16.00;100.00
56006;BME280;41888;44.696;10.522;2023-05-09T01:41:36;100802.41;;;16.01;100.00
56006;BME280;41888;44.696;10.522;2023-05-09T01:44:05;100797.28;;;16.12;100.00
56006;BME280;41888;44.696;10.522;2023-05-09T01:46:33;100793.78;;;16.23;100.00
56006;BME280;41888;44.696;10.522;2023-05-09T01:49:02;100796.34;;;16.18;100.00
56006;BME280;41888;44.696;10.522;2023-05-09T01:51:29;100795.41;;;16.24;100.00
56006;BME280;41888;44.696;10.522;2023-05-09T01:53:57;100800.78;;;16.24;100.00
56006;BME280;41888;44.696;10.522;2023-05-09T01:56:24;100800.91;;;16.17;100.00
56006;BME280;41888;44.696;10.522;2023-05-09T01:58:52;100795.53;;;16.17;100.00
56006;BME280;41888;44.696;10.522;2023-05-09T02:01:21;100796.34;;;16.18;100.00
56006;BME280;41888;44.696;10.522;2023-05-09T02:03:50;100797.03;;;16.13;100.00
56006;BME280;41888;44.696;10.522;2023-05-09T02:06:21;100796.34;;;16.18;100.00
56006;BME280;41888;44.696;10.522;2023-05-09T02:08:49;100798.19;;;16.29;100.00
56006;BME280;41888;44.696;10.522;2023-05-09T02:11:15;100802.78;;;16.28;100.00
56006;BME280;41888;44.696;10.522;2023-05-09T02:13:42;100806.38;;;16.11;100.00
56006;BME280;41888;44.696;10.522;2023-05-09T02:16:08;100799.25;;;16.16;100.00
56006;BME280;41888;44.696;10.522;2023-05-09T02:18:35;100789.66;;;16.09;100.00
56006;BME280;41888;44.696;10.522;2023-05-09T02:21:02;100788.38;;;15.99;100.00
56006;BME280;41888;44.696;10.522;2023-05-09T02:23:29;100788.47;;;15.93;100.00
56006;BME280;41888;44.696;10.522;2023-05-09T02:25:55;100782.16;;;15.76;100.00
56006;BME280;41888;44.696;10.522;2023-05-09T02:28:22;100791.63;;;15.78;100.00
56006;BME280;41888;44.696;10.522;2023-05-09T02:30:51;100790.22;;;15.87;100.00
56006;BME280;41888;44.696;10.522;2023-05-09T02:33:18;100792.19;;;15.69;100.00
56006;BME280;41888;44.696;10.522;2023-05-09T02:35:45;100793.34;;;15.73;100.00
56006;BME280;41888;44.696;10.522;2023-05-09T02:38:12;100791.19;;;15.51;100.00
56006;BME280;41888;44.696;10.522;2023-05-09T02:40:40;100791.84;;;15.47;100.00
56006;BME280;41888;44.696;10.522;2023-05-09T02:43:07;100795.38;;;15.29;100.00
56006;BME280;41888;44.696;10.522;2023-05-09T02:45:33;100800.97;;;15.28;100.00
56006;BME280;41888;44.696;10.522;2023-05-09T02:47:59;100793.84;;;15.21;100.00
56006;BME280;41888;44.696;10.522;2023-05-09T02:50:25;100787.31;;;14.99;100.00
56006;BME280;41888;44.696;10.522;2023-05-09T02:52:51;100780.69;;;14.65;100.00
56006;BME280;41888;44.696;10.522;2023-05-09T02:55:18;100780.69;;;14.65;100.00
56006;BME280;41888;44.696;10.522;2023-05-09T02:57:44;100775.63;;;14.75;100.00
56006;BME280;41888;44.696;10.522;2023-05-09T03:00:10;100779.88;;;14.65;100.00
56006;BME280;41888;44.696;10.522;2023-05-09T03:02:37;100790.91;;;14.75;100.00
56006;BME280;41888;44.696;10.522;2023-05-09T03:05:04;100780.78;;;14.95;100.00
56006;BME280;41888;44.696;10.522;2023-05-09T03:07:30;100784.56;;;14.88;100.00
56006;BME280;41888;44.696;10.522;2023-05-09T03:09:57;100779.38;;;14.74;100.00
56006;BME280;41888;44.696;10.522;2023-05-09T03:12:23;100780.97;;;14.75;100.00
56006;BME280;41888;44.696;10.522;2023-05-09T03:14:49;100780.25;;;14.68;100.00
56006;BME280;41888;44.696;10.522;2023-05-09T03:17:15;100780.56;;;14.78;100.00
56006;BME280;41888;44.696;10.522;2023-05-09T03:19:46;100775.19;;;14.78;100.00
56006;BME280;41888;44.696;10.522;2023-05-09T03:22:13;100777.19;;;14.65;100.00
56006;BME280;41888;44.696;10.522;2023-05-09T03:24:39;100786.03;;;14.65;100.00
56006;BME280;41888;44.696;10.522;2023-05-09T03:27:05;100782.63;;;14.76;100.00
56006;BME280;41888;44.696;10.522;2023-05-09T03:29:32;100793.06;;;14.85;100.00
56006;BME280;41888;44.696;10.522;2023-05-09T03:31:58;100785.09;;;14.78;100.00
56006;BME280;41888;44.696;10.522;2023-05-09T03:34:24;100787.16;;;14.76;100.00
56006;BME280;41888;44.696;10.522;2023-05-09T03:36:50;100789.84;;;14.76;100.00
56006;BME280;41888;44.696;10.522;2023-05-09T03:39:16;100781.28;;;14.67;100.00
56006;BME280;41888;44.696;10.522;2023-05-09T03:41:43;100790.97;;;14.68;100.00
56006;BME280;41888;44.696;10.522;2023-05-09T03:44:09;100794.69;;;14.67;100.00
56006;BME280;41888;44.696;10.522;2023-05-09T03:46:37;100799.28;;;14.60;100.00
56006;BME280;41888;44.696;10.522;2023-05-09T03:49:03;100795.94;;;14.65;100.00
56006;BME280;41888;44.696;10.522;2023-05-09T03:51:29;100789.19;;;14.62;100.00
56006;BME280;41888;44.696;10.522;2023-05-09T03:53:57;100789.31;;;14.67;100.00
56006;BME280;41888;44.696;10.522;2023-05-09T03:56:23;100793.25;;;14.65;100.00
56006;BME280;41888;44.696;10.522;2023-05-09T03:58:49;100794.22;;;14.52;100.00
56006;BME280;41888;44.696;10.522;2023-05-09T04:01:15;100790.75;;;14.27;100.00
56006;BME280;41888;44.696;10.522;2023-05-09T04:03:42;100794.81;;;14.29;100.00
56006;BME280;41888;44.696;10.522;2023-05-09T04:06:08;100785.50;;;14.14;100.00
56006;BME280;41888;44.696;10.522;2023-05-09T04:08:34;100780.97;;;14.14;100.00
56006;BME280;41888;44.696;10.522;2023-05-09T04:11:01;100786.97;;;14.10;100.00
56006;BME280;41888;44.696;10.522;2023-05-09T04:13:27;100788.72;;;13.98;100.00
56006;BME280;41888;44.696;10.522;2023-05-09T04:15:55;100778.66;;;13.93;100.00
56006;BME280;41888;44.696;10.522;2023-05-09T04:18:21;100783.25;;;14.11;100.00
56006;BME280;41888;44.696;10.522;2023-05-09T04:20:47;100777.19;;;14.22;100.00
56006;BME280;41888;44.696;10.522;2023-05-09T04:23:13;100779.34;;;14.38;100.00
56006;BME280;41888;44.696;10.522;2023-05-09T04:25:39;100770.66;;;14.61;100.00
56006;BME280;41888;44.696;10.522;2023-05-09T04:28:05;100774.59;;;14.76;100.00
56006;BME280;41888;44.696;10.522;2023-05-09T04:30:32;100778.16;;;14.89;100.00
56006;BME280;41888;44.696;10.522;2023-05-09T04:32:58;100783.66;;;14.94;100.00
56006;BME280;41888;44.696;10.522;2023-05-09T04:35:24;100785.44;;;14.82;100.00
56006;BME280;41888;44.696;10.522;2023-05-09T04:37:51;100788.63;;;15.08;100.00
56006;BME280;41888;44.696;10.522;2023-05-09T04:40:17;100792.19;;;15.20;100.00
56006;BME280;41888;44.696;10.522;2023-05-09T04:42:44;100793.50;;;15.30;100.00
56006;BME280;41888;44.696;10.522;2023-05-09T04:45:10;100792.97;;;15.39;100.00
56006;BME280;41888;44.696;10.522;2023-05-09T04:47:36;100794.06;;;15.50;100.00
56006;BME280;41888;44.696;10.522;2023-05-09T04:50:03;100797.03;;;15.60;100.00
56006;BME280;41888;44.696;10.522;2023-05-09T04:52:30;100805.13;;;15.72;100.00
56006;BME280;41888;44.696;10.522;2023-05-09T04:54:56;100807.16;;;15.88;100.00
56006;BME280;41888;44.696;10.522;2023-05-09T04:57:22;100807.19;;;16.34;100.00
56006;BME280;41888;44.696;10.522;2023-05-09T04:59:49;100803.72;;;16.69;100.00
56006;BME280;41888;44.696;10.522;2023-05-09T05:02:15;100800.06;;;17.26;100.00
56006;BME280;41888;44.696;10.522;2023-05-09T05:04:42;100802.53;;;18.01;100.00
56006;BME280;41888;44.696;10.522;2023-05-09T05:07:08;100815.34;;;18.83;100.00
56006;BME280;41888;44.696;10.522;2023-05-09T05:09:34;100824.44;;;18.77;100.00
56006;BME280;41888;44.696;10.522;2023-05-09T05:12:00;100826.03;;;19.16;100.00
56006;BME280;41888;44.696;10.522;2023-05-09T05:14:26;100830.81;;;20.11;100.00
56006;BME280;41888;44.696;10.522;2023-05-09T05:16:52;100832.63;;;20.33;100.00
56006;BME280;41888;44.696;10.522;2023-05-09T05:19:19;100829.97;;;19.30;100.00
56006;BME280;41888;44.696;10.522;2023-05-09T05:21:45;100818.41;;;18.70;100.00
56006;BME280;41888;44.696;10.522;2023-05-09T05:24:11;100819.88;;;19.21;100.00
56006;BME280;41888;44.696;10.522;2023-05-09T05:26:37;100823.97;;;17.96;100.00
56006;BME280;41888;44.696;10.522;2023-05-09T05:29:03;100820.25;;;17.41;100.00
56006;BME280;41888;44.696;10.522;2023-05-09T05:31:29;100819.22;;;17.02;100.00
56006;BME280;41888;44.696;10.522;2023-05-09T05:33:56;100810.50;;;16.60;100.00
56006;BME280;41888;44.696;10.522;2023-05-09T05:36:22;100803.25;;;16.48;100.00
56006;BME280;41888;44.696;10.522;2023-05-09T05:38:48;100817.25;;;16.27;100.00
56006;BME280;41888;44.696;10.522;2023-05-09T05:41:15;100814.78;;;16.26;100.00
56006;BME280;41888;44.696;10.522;2023-05-09T05:43:41;100811.41;;;16.42;100.00
56006;BME280;41888;44.696;10.522;2023-05-09T05:46:07;100812.13;;;16.37;100.00
56006;BME280;41888;44.696;10.522;2023-05-09T05:48:33;100817.38;;;16.32;100.00
56006;BME280;41888;44.696;10.522;2023-05-09T05:50:59;100816.19;;;16.40;100.00
56006;BME280;41888;44.696;10.522;2023-05-09T05:53:26;100810.84;;;16.28;100.00
56006;BME280;41888;44.696;10.522;2023-05-09T05:55:52;100809.75;;;16.29;100.00
56006;BME280;41888;44.696;10.522;2023-05-09T05:58:18;100807.31;;;16.39;100.00
56006;BME280;41888;44.696;10.522;2023-05-09T06:00:44;100812.09;;;16.26;100.00
56006;BME280;41888;44.696;10.522;2023-05-09T06:03:10;100813.03;;;16.31;100.00
56006;BME280;41888;44.696;10.522;2023-05-09T06:05:43;100810.47;;;16.25;100.00
56006;BME280;41888;44.696;10.522;2023-05-09T06:08:09;100805.19;;;16.18;100.00
56006;BME280;41888;44.696;10.522;2023-05-09T06:10:35;100810.00;;;16.16;100.00
56006;BME280;41888;44.696;10.522;2023-05-09T06:13:01;100813.84;;;16.09;100.00
56006;BME280;41888;44.696;10.522;2023-05-09T06:15:28;100811.50;;;16.24;100.00
56006;BME280;41888;44.696;10.522;2023-05-09T06:17:54;100813.28;;;16.30;100.00
56006;BME280;41888;44.696;10.522;2023-05-09T06:20:20;100816.06;;;16.23;100.00
56006;BME280;41888;44.696;10.522;2023-05-09T06:22:46;100820.53;;;16.18;100.00
56006;BME280;41888;44.696;10.522;2023-05-09T06:25:12;100816.06;;;16.12;100.00
56006;BME280;41888;44.696;10.522;2023-05-09T06:27:38;100811.72;;;15.99;100.00
56006;BME280;41888;44.696;10.522;2023-05-09T06:30:05;100817.22;;;16.04;100.00
56006;BME280;41888;44.696;10.522;2023-05-09T06:32:32;100813.94;;;16.14;100.00
56006;BME280;41888;44.696;10.522;2023-05-09T06:34:58;100810.69;;;16.12;100.00
56006;BME280;41888;44.696;10.522;2023-05-09T06:37:24;100812.44;;;16.29;100.00
56006;BME280;41888;44.696;10.522;2023-05-09T06:39:51;100809.16;;;16.04;100.00
56006;BME280;41888;44.696;10.522;2023-05-09T06:42:17;100812.09;;;16.14;100.00
56006;BME280;41888;44.696;10.522;2023-05-09T06:44:43;100803.56;;;16.05;100.00
56006;BME280;41888;44.696;10.522;2023-05-09T06:47:09;100794.91;;;16.03;100.00
56006;BME280;41888;44.696;10.522;2023-05-09T06:49:36;100796.91;;;15.96;100.00
56006;BME280;41888;44.696;10.522;2023-05-09T06:52:02;100791.53;;;16.08;100.00
56006;BME280;41888;44.696;10.522;2023-05-09T06:54:28;100790.16;;;16.17;100.00
56006;BME280;41888;44.696;10.522;2023-05-09T06:56:54;100802.41;;;16.25;100.00
56006;BME280;41888;44.696;10.522;2023-05-09T06:59:20;100797.16;;;16.18;100.00
56006;BME280;41888;44.696;10.522;2023-05-09T07:01:47;100791.78;;;16.18;100.00
56006;BME280;41888;44.696;10.522;2023-05-09T07:04:13;100791.09;;;16.34;100.00
56006;BME280;41888;44.696;10.522;2023-05-09T07:06:39;100798.81;;;16.42;100.00
56006;BME280;41888;44.696;10.522;2023-05-09T07:09:05;100796.81;;;16.26;100.00
56006;BME280;41888;44.696;10.522;2023-05-09T07:11:40;100795.19;;;16.25;100.00
56006;BME280;41888;44.696;10.522;2023-05-09T07:14:06;100794.34;;;16.13;100.00
56006;BME280;41888;44.696;10.522;2023-05-09T07:16:33;100788.97;;;16.13;100.00
56006;BME280;41888;44.696;10.522;2023-05-09T07:18:59;100787.47;;;16.29;100.00
56006;BME280;41888;44.696;10.522;2023-05-09T07:21:25;100784.44;;;16.25;100.00
56006;BME280;41888;44.696;10.522;2023-05-09T07:23:51;100773.38;;;16.33;100.00
56006;BME280;41888;44.696;10.522;2023-05-09T07:26:17;100769.38;;;16.47;100.00
56006;BME280;41888;44.696;10.522;2023-05-09T07:28:43;100759.00;;;16.63;100.00
56006;BME280;41888;44.696;10.522;2023-05-09T07:31:10;100765.50;;;16.67;100.00
56006;BME280;41888;44.696;10.522;2023-05-09T07:33:36;100771.09;;;16.77;100.00
56006;BME280;41888;44.696;10.522;2023-05-09T07:36:02;100779.31;;;16.70;100.00
56006;BME280;41888;44.696;10.522;2023-05-09T07:38:28;100790.94;;;16.87;100.00
56006;BME280;41888;44.696;10.522;2023-05-09T07:40:54;100790.91;;;17.11;100.00
56006;BME280;41888;44.696;10.522;2023-05-09T07:43:21;100795.44;;;17.10;100.00
56006;BME280;41888;44.696;10.522;2023-05-09T07:45:47;100793.41;;;16.89;100.00
56006;BME280;41888;44.696;10.522;2023-05-09T07:48:13;100788.53;;;17.14;100.00
56006;BME280;41888;44.696;10.522;2023-05-09T07:50:39;100793.53;;;17.22;100.00
56006;BME280;41888;44.696;10.522;2023-05-09T07:53:06;100795.00;;;17.70;100.00
56006;BME280;41888;44.696;10.522;2023-05-09T07:55:32;100788.16;;;17.79;100.00
56006;BME280;41888;44.696;10.522;2023-05-09T07:57:58;100779.00;;;18.30;100.00
56006;BME280;41888;44.696;10.522;2023-05-09T08:00:24;100786.84;;;17.98;100.00
56006;BME280;41888;44.696;10.522;2023-05-09T08:02:51;100779.00;;;18.85;100.00
56006;BME280;41888;44.696;10.522;2023-05-09T08:05:18;100788.47;;;19.58;100.00
56006;BME280;41888;44.696;10.522;2023-05-09T08:07:44;100793.56;;;19.33;100.00
56006;BME280;41888;44.696;10.522;2023-05-09T08:10:11;100795.59;;;19.21;100.00
56006;BME280;41888;44.696;10.522;2023-05-09T08:12:37;100788.06;;;19.23;100.00
56006;BME280;41888;44.696;10.522;2023-05-09T08:15:04;100791.53;;;18.75;100.00
56006;BME280;41888;44.696;10.522;2023-05-09T08:17:30;100793.31;;;19.56;100.00
56006;BME280;41888;44.696;10.522;2023-05-09T08:19:56;100792.53;;;19.88;100.00
56006;BME280;41888;44.696;10.522;2023-05-09T08:22:23;100787.06;;;19.29;100.00
56006;BME280;41888;44.696;10.522;2023-05-09T08:24:49;100775.84;;;19.42;100.00
56006;BME280;41888;44.696;10.522;2023-05-09T08:27:15;100781.19;;;18.50;100.00
56006;BME280;41888;44.696;10.522;2023-05-09T08:29:42;100779.41;;;18.77;100.00
56006;BME280;41888;44.696;10.522;2023-05-09T08:32:09;100781.66;;;19.29;100.00
56006;BME280;41888;44.696;10.522;2023-05-09T08:34:35;100772.13;;;18.56;100.00
56006;BME280;41888;44.696;10.522;2023-05-09T08:37:02;100760.72;;;18.32;100.00
56006;BME280;41888;44.696;10.522;2023-05-09T08:39:29;100761.13;;;19.01;100.00
56006;BME280;41888;44.696;10.522;2023-05-09T08:42:00;100756.47;;;19.18;100.00
56006;BME280;41888;44.696;10.522;2023-05-09T08:44:28;100750.41;;;19.33;100.00
56006;BME280;41888;44.696;10.522;2023-05-09T08:47:00;100756.31;;;19.89;100.00
56006;BME280;41888;44.696;10.522;2023-05-09T08:49:27;100760.34;;;19.81;100.00
56006;BME280;41888;44.696;10.522;2023-05-09T08:51:54;100764.50;;;19.99;100.00
56006;BME280;41888;44.696;10.522;2023-05-09T08:54:21;100770.31;;;20.12;100.00
56006;BME280;41888;44.696;10.522;2023-05-09T08:56:51;100766.88;;;20.27;100.00
56006;BME280;41888;44.696;10.522;2023-05-09T08:59:17;100768.47;;;19.54;100.00
56006;BME280;41888;44.696;10.522;2023-05-09T09:01:44;100764.34;;;19.78;100.00
56006;BME280;41888;44.696;10.522;2023-05-09T09:04:11;100762.00;;;20.24;100.00
56006;BME280;41888;44.696;10.522;2023-05-09T09:06:38;100758.78;;;19.58;100.00
56006;BME280;41888;44.696;10.522;2023-05-09T09:09:06;100764.97;;;19.86;100.00
56006;BME280;41888;44.696;10.522;2023-05-09T09:11:34;100754.41;;;19.52;100.00
56006;BME280;41888;44.696;10.522;2023-05-09T09:14:04;100752.19;;;19.76;100.00
56006;BME280;41888;44.696;10.522;2023-05-09T09:16:31;100745.84;;;19.60;100.00
56006;BME280;41888;44.696;10.522;2023-05-09T09:18:58;100750.19;;;19.93;100.00
56006;BME280;41888;44.696;10.522;2023-05-09T09:21:25;100741.16;;;20.56;100.00
56006;BME280;41888;44.696;10.522;2023-05-09T09:23:54;100744.25;;;19.96;100.00
56006;BME280;41888;44.696;10.522;2023-05-09T09:26:20;100736.06;;;19.54;100.00
56006;BME280;41888;44.696;10.522;2023-05-09T09:28:47;100746.34;;;19.57;100.00
56006;BME280;41888;44.696;10.522;2023-05-09T09:31:21;100738.94;;;20.11;100.00
56006;BME280;41888;44.696;10.522;2023-05-09T09:33:48;100735.97;;;20.50;100.00
56006;BME280;41888;44.696;10.522;2023-05-09T09:36:14;100729.84;;;20.70;100.00
56006;BME280;41888;44.696;10.522;2023-05-09T09:38:41;100730.75;;;20.95;100.00
56006;BME280;41888;44.696;10.522;2023-05-09T09:41:11;100718.56;;;20.88;100.00
56006;BME280;41888;44.696;10.522;2023-05-09T09:43:38;100715.75;;;20.62;100.00
56006;BME280;41888;44.696;10.522;2023-05-09T09:46:09;100704.75;;;20.89;100.00
56006;BME280;41888;44.696;10.522;2023-05-09T09:48:36;100706.09;;;20.82;100.00
56006;BME280;41888;44.696;10.522;2023-05-09T09:51:11;100706.72;;;21.09;100.00
56006;BME280;41888;44.696;10.522;2023-05-09T09:53:39;100708.47;;;20.21;100.00
56006;BME280;41888;44.696;10.522;2023-05-09T09:56:06;100708.63;;;20.04;100.00
56006;BME280;41888;44.696;10.522;2023-05-09T09:58:33;100706.63;;;20.84;100.00
56006;BME280;41888;44.696;10.522;2023-05-09T10:01:10;100711.53;;;20.92;100.00
56006;BME280;41888;44.696;10.522;2023-05-09T10:03:40;100698.03;;;20.92;100.00
56006;BME280;41888;44.696;10.522;2023-05-09T10:06:14;100712.78;;;21.46;100.00
56006;BME280;41888;44.696;10.522;2023-05-09T10:08:43;100715.47;;;21.67;100.00
56006;BME280;41888;44.696;10.522;2023-05-09T10:11:12;100711.53;;;20.92;100.00
56006;BME280;41888;44.696;10.522;2023-05-09T10:13:38;100707.22;;;20.91;100.00
56006;BME280;41888;44.696;10.522;2023-05-09T10:16:05;100707.75;;;20.83;100.00
56006;BME280;41888;44.696;10.522;2023-05-09T10:18:34;100700.81;;;21.32;100.00
56006;BME280;41888;44.696;10.522;2023-05-09T10:21:00;100705.19;;;21.54;100.00
56006;BME280;41888;44.696;10.522;2023-05-09T10:23:33;100704.06;;;21.19;100.00
56006;BME280;41888;44.696;10.522;2023-05-09T10:26:10;100701.53;;;20.92;100.00
56006;BME280;41888;44.696;10.522;2023-05-09T10:28:41;100692.06;;;20.95;100.00
56006;BME280;41888;44.696;10.522;2023-05-09T10:31:25;100702.63;;;21.01;100.00
56006;BME280;41888;44.696;10.522;2023-05-09T10:33:54;100692.44;;;21.24;100.00
56006;BME280;41888;44.696;10.522;2023-05-09T10:36:21;100684.25;;;21.03;100.00
56006;BME280;41888;44.696;10.522;2023-05-09T10:38:53;100672.06;;;21.06;100.00
56006;BME280;41888;44.696;10.522;2023-05-09T10:41:20;100665.63;;;21.22;100.00
56006;BME280;41888;44.696;10.522;2023-05-09T10:43:47;100671.59;;;21.19;100.00
56006;BME280;41888;44.696;10.522;2023-05-09T10:46:14;100657.81;;;21.36;100.00
56006;BME280;41888;44.696;10.522;2023-05-09T10:48:41;100658.53;;;20.96;100.00
56006;BME280;41888;44.696;10.522;2023-05-09T10:51:08;100667.72;;;20.95;100.00
56006;BME280;41888;44.696;10.522;2023-05-09T10:53:42;100650.97;;;20.93;100.00
56006;BME280;41888;44.696;10.522;2023-05-09T10:56:09;100659.41;;;21.42;100.00
56006;BME280;41888;44.696;10.522;2023-05-09T10:58:47;100656.19;;;21.60;100.00
56006;BME280;41888;44.696;10.522;2023-05-09T11:01:13;100650.22;;;21.48;100.00
56006;BME280;41888;44.696;10.522;2023-05-09T11:03:57;100644.25;;;21.26;100.00
56006;BME280;41888;44.696;10.522;2023-05-09T11:06:44;100646.69;;;21.17;100.00
56006;BME280;41888;44.696;10.522;2023-05-09T11:12:10;100625.31;;;21.31;100.00
56006;BME280;41888;44.696;10.522;2023-05-09T11:14:40;100627.16;;;21.05;100.00
56006;BME280;41888;44.696;10.522;2023-05-09T11:22:25;100616.31;;;20.85;100.00
56006;BME280;41888;44.696;10.522;2023-05-09T11:25:13;100619.31;;;20.93;100.00
56006;BME280;41888;44.696;10.522;2023-05-09T11:27:48;100620.72;;;21.31;100.00
56006;BME280;41888;44.696;10.522;2023-05-09T11:30:16;100613.28;;;22.18;100.00
56006;BME280;41888;44.696;10.522;2023-05-09T11:35:15;100616.44;;;22.40;97.03
56006;BME280;41888;44.696;10.522;2023-05-09T11:40:21;100605.00;;;21.54;100.00
56006;BME280;41888;44.696;10.522;2023-05-09T11:42:50;100609.59;;;21.13;100.00
56006;BME280;41888;44.696;10.522;2023-05-09T11:45:19;100612.88;;;21.30;100.00
56006;BME280;41888;44.696;10.522;2023-05-09T11:47:46;100612.53;;;21.97;96.67
56006;BME280;41888;44.696;10.522;2023-05-09T11:50:14;100604.06;;;22.19;93.66
56006;BME280;41888;44.696;10.522;2023-05-09T11:52:41;100601.78;;;21.57;98.83
56006;BME280;41888;44.696;10.522;2023-05-09T11:55:12;100602.31;;;21.28;100.00
56006;BME280;41888;44.696;10.522;2023-05-09T11:57:40;100594.09;;;21.89;100.00
56006;BME280;41888;44.696;10.522;2023-05-09T12:00:07;100581.41;;;21.74;100.00
56006;BME280;41888;44.696;10.522;2023-05-09T12:02:36;100569.28;;;21.26;99.28
56006;BME280;41888;44.696;10.522;2023-05-09T12:05:21;100571.38;;;21.75;97.48
56006;BME280;41888;44.696;10.522;2023-05-09T12:07:48;100562.34;;;22.15;96.09
56006;BME280;41888;44.696;10.522;2023-05-09T12:10:20;100568.47;;;21.51;100.00
56006;BME280;41888;44.696;10.522;2023-05-09T12:12:49;100560.06;;;21.68;98.85
56006;BME280;41888;44.696;10.522;2023-05-09T12:15:16;100550.13;;;22.17;98.11
56006;BME280;41888;44.696;10.522;2023-05-09T12:17:43;100549.50;;;22.36;97.63
56006;BME280;41888;44.696;10.522;2023-05-09T12:20:10;100542.22;;;21.36;100.00
56006;BME280;41888;44.696;10.522;2023-05-09T12:22:36;100534.09;;;21.01;100.00
56006;BME280;41888;44.696;10.522;2023-05-09T12:25:07;100523.75;;;21.69;98.16
56006;BME280;41888;44.696;10.522;2023-05-09T12:27:37;100524.38;;;21.35;100.00
56006;BME280;41888;44.696;10.522;2023-05-09T12:30:07;100524.56;;;21.69;100.00
56006;BME280;41888;44.696;10.522;2023-05-09T12:32:35;100511.31;;;21.68;100.00
56006;BME280;41888;44.696;10.522;2023-05-09T12:35:05;100511.31;;;21.58;100.00
56006;BME280;41888;44.696;10.522;2023-05-09T12:37:32;100508.16;;;21.25;100.00
56006;BME280;41888;44.696;10.522;2023-05-09T12:40:10;100505.41;;;21.05;100.00
56006;BME280;41888;44.696;10.522;2023-05-09T12:42:38;100507.06;;;21.26;99.20
56006;BME280;41888;44.696;10.522;2023-05-09T12:45:06;100512.56;;;21.90;100.00
56006;BME280;41888;44.696;10.522;2023-05-09T12:47:33;100503.28;;;21.22;100.00
56006;BME280;41888;44.696;10.522;2023-05-09T12:50:01;100501.63;;;21.46;99.15
56006;BME280;41888;44.696;10.522;2023-05-09T12:52:36;100496.31;;;21.90;98.80
56006;BME280;41888;44.696;10.522;2023-05-09T12:55:20;100501.13;;;22.09;96.09
56006;BME280;41888;44.696;10.522;2023-05-09T12:57:58;100479.38;;;21.60;97.33
56006;BME280;41888;44.696;10.522;2023-05-09T13:00:24;100493.13;;;21.68;95.28
56006;BME280;41888;44.696;10.522;2023-05-09T13:02:51;100487.78;;;22.22;95.26